Time;durP1;ratioP1;P1;durP2;ratioP2;P2;SDS_P1;SDS_P2;PMS_P1;PMS_P2;Temp;Humidity;BMP_temperature;BMP_pressure;BME280_temperature;BME280_humidity;BME280_pressure;Samples;Min_cycle;Max_cycle;Signal;HPM_P1;HPM_P2
2022/01/30 00:01:29;;;;;;;1.42;0.30;;;6.00;99.90;;;;;;5043101;28;20380;-73
2022/01/30 00:03:55;;;;;;;1.67;0.20;;;6.00;99.90;;;;;;5042754;28;20428;-73
2022/01/30 00:06:21;;;;;;;0.68;0.22;;;6.00;99.90;;;;;;5038472;28;20028;-73
2022/01/30 00:08:48;;;;;;;0.50;0.30;;;6.00;99.90;;;;;;5042577;28;20028;-73
2022/01/30 00:11:22;;;;;;;0.43;0.25;;;6.00;99.90;;;;;;5043638;28;20029;-73
2022/01/30 00:13:48;;;;;;;0.90;0.47;;;6.00;99.90;;;;;;5045621;28;20525;-72
2022/01/30 00:16:16;;;;;;;0.57;0.30;;;6.00;99.90;;;;;;5051031;28;20105;-72
2022/01/30 00:19:03;;;;;;;1.00;0.10;;;6.00;99.90;;;;;;5046811;28;20048;-71
2022/01/30 00:24:02;;;;;;;0.93;0.40;;;5.90;99.90;;;;;;5041815;28;20052;-73
2022/01/30 00:26:31;;;;;;;0.57;0.28;;;5.90;99.90;;;;;;5041565;28;20024;-73
2022/01/30 00:28:57;;;;;;;0.50;0.32;;;5.90;99.90;;;;;;5042994;28;20033;-73
2022/01/30 00:31:25;;;;;;;0.40;0.30;;;5.90;99.90;;;;;;5042697;28;20513;-72
2022/01/30 00:33:51;;;;;;;0.50;0.20;;;5.90;99.90;;;;;;5042432;28;20512;-72
2022/01/30 00:36:20;;;;;;;0.80;0.43;;;5.90;99.90;;;;;;5035453;28;20029;-73
2022/01/30 00:38:45;;;;;;;2.15;0.30;;;5.90;99.90;;;;;;5044740;28;20155;-73
2022/01/30 00:41:12;;;;;;;0.40;0.30;;;6.00;99.90;;;;;;5037666;28;20117;-73
2022/01/30 00:43:41;;;;;;;0.40;0.20;;;6.00;99.90;;;;;;5041974;28;20021;-73
2022/01/30 00:46:06;;;;;;;0.50;0.32;;;6.00;99.90;;;;;;5038840;28;20040;-73
2022/01/30 00:48:32;;;;;;;0.88;0.40;;;6.00;99.90;;;;;;5040845;28;20025;-73
2022/01/30 00:50:57;;;;;;;0.73;0.40;;;6.00;99.90;;;;;;5041550;28;20032;-73
2022/01/30 00:53:23;;;;;;;0.50;0.40;;;6.00;99.90;;;;;;5033370;28;20025;-73
2022/01/30 00:55:55;;;;;;;1.15;0.30;;;6.00;99.90;;;;;;5039149;28;20025;-73
2022/01/30 00:58:20;;;;;;;0.85;0.40;;;6.00;99.90;;;;;;5039773;28;20110;-72
2022/01/30 01:00:49;;;;;;;0.55;0.45;;;6.10;99.90;;;;;;5042046;28;20075;-73
2022/01/30 01:03:17;;;;;;;0.68;0.50;;;6.10;99.90;;;;;;5041863;28;20021;-72
2022/01/30 01:05:45;;;;;;;0.77;0.50;;;6.10;99.90;;;;;;5039560;28;20087;-72
2022/01/30 01:08:20;;;;;;;1.25;0.68;;;6.10;99.90;;;;;;5032537;28;20029;-73
2022/01/30 01:10:57;;;;;;;1.10;0.60;;;6.10;99.90;;;;;;5037282;28;20029;-72
2022/01/30 01:13:54;;;;;;;0.90;0.60;;;6.10;99.90;;;;;;5036871;28;20553;-72
2022/01/30 01:24:34;;;;;;;0.55;0.40;;;6.20;99.90;;;;;;5036186;28;19915;-72
2022/01/30 01:26:59;;;;;;;0.68;0.38;;;6.20;99.90;;;;;;5047206;28;20025;-73
2022/01/30 01:29:25;;;;;;;1.40;0.65;;;6.20;99.90;;;;;;5036977;28;20465;-72
2022/01/30 01:31:51;;;;;;;0.75;0.50;;;6.20;99.90;;;;;;5041119;28;20039;-72
2022/01/30 01:34:30;;;;;;;2.58;0.40;;;6.20;99.90;;;;;;5040662;28;20025;-72
2022/01/30 01:36:56;;;;;;;0.52;0.40;;;6.20;99.90;;;;;;5047578;28;20021;-73
2022/01/30 01:39:22;;;;;;;1.17;0.50;;;6.20;99.90;;;;;;5040616;28;20035;-72
2022/01/30 01:41:50;;;;;;;0.73;0.45;;;6.20;99.90;;;;;;5045515;28;20024;-72
2022/01/30 01:44:31;;;;;;;0.85;0.40;;;6.20;99.90;;;;;;5034686;28;20029;-72
2022/01/30 01:46:57;;;;;;;0.73;0.45;;;6.20;99.90;;;;;;5035724;28;20037;-72
2022/01/30 01:49:28;;;;;;;0.55;0.30;;;6.20;99.90;;;;;;5038872;28;20083;-72
2022/01/30 01:52:30;;;;;;;0.47;0.40;;;6.20;99.90;;;;;;5035987;28;20423;-72
2022/01/30 01:54:50;;;;;;;0.60;0.45;;;6.20;99.90;;;;;;5036692;28;20021;-72
2022/01/30 01:57:24;;;;;;;0.85;0.45;;;6.30;99.90;;;;;;5042729;28;20032;-72
2022/01/30 01:59:53;;;;;;;0.55;0.43;;;6.30;99.90;;;;;;5042169;28;20048;-73
2022/01/30 02:02:19;;;;;;;1.08;0.40;;;6.30;99.90;;;;;;5041909;28;20045;-73
2022/01/30 02:04:48;;;;;;;1.60;0.50;;;6.30;99.90;;;;;;5038401;28;20029;-73
2022/01/30 02:09:40;;;;;;;2.28;0.40;;;6.30;99.90;;;;;;5032988;28;20410;-73
2022/01/30 02:12:14;;;;;;;0.32;0.32;;;6.30;99.90;;;;;;5042762;28;20087;-73
2022/01/30 02:28:07;;;;;;;0.70;0.50;;;6.20;99.90;;;;;;5038310;28;20063;-70
2022/01/30 02:30:36;;;;;;;0.77;0.50;;;6.30;99.90;;;;;;5039169;28;20034;-70
2022/01/30 02:33:02;;;;;;;1.60;0.70;;;6.20;99.90;;;;;;5035724;28;20045;-70
2022/01/30 02:35:28;;;;;;;0.73;0.50;;;6.20;99.90;;;;;;5035092;28;20029;-70
2022/01/30 02:37:57;;;;;;;0.65;0.47;;;6.20;99.90;;;;;;5039883;28;20051;-69
2022/01/30 02:40:23;;;;;;;1.77;0.60;;;6.20;99.90;;;;;;5035913;28;20033;-70
2022/01/30 02:42:51;;;;;;;1.05;0.45;;;6.20;99.90;;;;;;5038162;28;20033;-69
2022/01/30 02:45:19;;;;;;;1.30;0.50;;;6.20;99.90;;;;;;5037892;28;20029;-70
2022/01/30 02:51:14;;;;;;;0.85;0.60;;;6.20;99.90;;;;;;5039436;28;20540;-70
2022/01/30 02:53:12;;;;;;;1.17;0.50;;;6.20;99.90;;;;;;5038800;28;20077;-70
2022/01/30 02:55:40;;;;;;;1.45;0.60;;;6.10;99.90;;;;;;5035137;28;20485;-69
2022/01/30 02:58:06;;;;;;;0.98;0.50;;;6.10;99.90;;;;;;5036650;28;20103;-69
2022/01/30 03:00:33;;;;;;;0.85;0.50;;;6.10;99.90;;;;;;5033831;28;20116;-70
2022/01/30 03:02:59;;;;;;;1.50;0.85;;;6.10;99.90;;;;;;5038900;28;20061;-69
2022/01/30 03:05:30;;;;;;;1.33;0.65;;;6.10;99.90;;;;;;5038846;28;20390;-69
2022/01/30 03:07:56;;;;;;;0.98;0.65;;;6.10;99.90;;;;;;5035065;28;20045;-69
2022/01/30 03:10:24;;;;;;;1.98;1.02;;;6.00;99.90;;;;;;5035985;28;20378;-70
2022/01/30 03:12:50;;;;;;;1.05;0.70;;;6.00;99.90;;;;;;5037411;28;20029;-70
2022/01/30 03:15:19;;;;;;;1.60;0.95;;;6.00;99.90;;;;;;5039005;28;20060;-70
2022/01/30 03:17:44;;;;;;;1.15;0.70;;;6.00;99.90;;;;;;5038557;28;20040;-70
2022/01/30 03:20:10;;;;;;;1.55;0.82;;;6.00;99.90;;;;;;5041095;28;20037;-70
2022/01/30 03:22:42;;;;;;;1.13;0.52;;;6.00;99.90;;;;;;5041577;28;20025;-70
2022/01/30 03:25:08;;;;;;;0.85;0.65;;;6.00;99.90;;;;;;5043184;28;20470;-70
2022/01/30 03:27:34;;;;;;;2.45;0.60;;;6.00;99.90;;;;;;5037486;28;20098;-69
2022/01/30 03:30:07;;;;;;;1.13;0.60;;;6.00;99.90;;;;;;5041462;28;20033;-69
2022/01/30 03:32:35;;;;;;;2.72;0.70;;;6.10;99.90;;;;;;5040292;28;20081;-69
2022/01/30 03:35:01;;;;;;;1.27;0.70;;;6.00;99.90;;;;;;5040298;28;20044;-69
2022/01/30 03:37:27;;;;;;;3.03;0.70;;;6.10;99.90;;;;;;5040112;28;20023;-69
2022/01/30 03:39:52;;;;;;;2.17;0.82;;;6.10;99.90;;;;;;5037277;28;20029;-69
2022/01/30 03:42:18;;;;;;;1.38;0.68;;;6.10;99.90;;;;;;5037829;28;20032;-69
2022/01/30 03:44:44;;;;;;;1.63;0.70;;;6.10;99.90;;;;;;5036725;28;20025;-68
2022/01/30 03:47:09;;;;;;;1.17;0.60;;;6.10;99.90;;;;;;5037118;28;20167;-70
2022/01/30 03:49:35;;;;;;;1.52;0.77;;;6.10;99.90;;;;;;5040855;28;20078;-69
2022/01/30 03:52:04;;;;;;;3.88;0.60;;;6.10;99.90;;;;;;5036719;28;20199;-70
2022/01/30 03:54:30;;;;;;;1.05;0.50;;;6.10;99.90;;;;;;5040806;28;20025;-70
2022/01/30 03:56:59;;;;;;;1.33;0.70;;;6.10;99.90;;;;;;5041080;28;20025;-70
2022/01/30 03:59:24;;;;;;;1.58;0.75;;;6.10;99.90;;;;;;5039290;28;20032;-70
2022/01/30 04:01:50;;;;;;;1.98;0.50;;;6.00;99.90;;;;;;5040095;28;20037;-70
2022/01/30 04:04:15;;;;;;;2.15;0.70;;;6.00;99.90;;;;;;5038503;28;20159;-70
2022/01/30 04:06:41;;;;;;;0.90;0.55;;;6.00;99.90;;;;;;5038995;28;20087;-70
2022/01/30 04:09:13;;;;;;;1.02;0.40;;;6.00;99.90;;;;;;5038695;28;20079;-70
2022/01/30 04:11:39;;;;;;;0.70;0.50;;;6.00;99.90;;;;;;5035358;28;20409;-69
2022/01/30 04:14:08;;;;;;;1.17;0.57;;;5.90;99.90;;;;;;5033972;28;20021;-69
2022/01/30 04:16:34;;;;;;;0.95;0.60;;;6.00;99.90;;;;;;5038260;28;20033;-69
2022/01/30 04:19:07;;;;;;;0.43;0.35;;;6.00;99.90;;;;;;5037800;28;20040;-69
2022/01/30 04:21:33;;;;;;;1.45;0.60;;;5.90;99.90;;;;;;5040713;28;20124;-69
2022/01/30 04:24:02;;;;;;;0.80;0.40;;;5.90;99.90;;;;;;5035620;28;20125;-69
2022/01/30 04:26:31;;;;;;;1.13;0.50;;;5.90;99.90;;;;;;5034885;28;20066;-69
2022/01/30 04:28:56;;;;;;;1.17;0.65;;;5.90;99.90;;;;;;5043059;28;20028;-69
2022/01/30 04:31:22;;;;;;;1.75;0.40;;;5.90;99.90;;;;;;5034265;28;20021;-69
2022/01/30 04:33:48;;;;;;;0.77;0.40;;;5.90;99.90;;;;;;5037794;28;20481;-69
2022/01/30 04:36:20;;;;;;;0.88;0.40;;;5.90;99.90;;;;;;5039914;28;20112;-69
2022/01/30 04:39:06;;;;;;;0.52;0.40;;;5.90;99.90;;;;;;5035643;28;20021;-69
2022/01/30 05:07:29;;;;;;;1.30;0.30;;;5.80;99.90;;;;;;5029551;28;20541;-70
2022/01/30 05:09:54;;;;;;;1.80;0.60;;;5.80;99.90;;;;;;5032077;28;20033;-68
2022/01/30 05:12:20;;;;;;;0.77;0.52;;;5.80;99.90;;;;;;5041656;28;20045;-70
2022/01/30 05:14:46;;;;;;;0.40;0.30;;;5.80;99.90;;;;;;5035875;28;20040;-70
2022/01/30 05:17:15;;;;;;;0.30;0.30;;;5.80;99.90;;;;;;5041197;28;20120;-69
2022/01/30 05:19:41;;;;;;;0.90;0.32;;;5.80;99.90;;;;;;5034422;28;20063;-70
2022/01/30 05:22:07;;;;;;;0.60;0.30;;;5.80;99.90;;;;;;5038982;28;20470;-69
2022/01/30 05:24:33;;;;;;;0.35;0.20;;;5.80;99.90;;;;;;5039782;28;20041;-71
2022/01/30 05:27:02;;;;;;;0.50;0.40;;;5.80;99.90;;;;;;5035814;28;20696;-69
2022/01/30 05:29:28;;;;;;;0.30;0.20;;;5.80;99.90;;;;;;5032609;28;20030;-70
2022/01/30 05:31:54;;;;;;;0.40;0.20;;;5.80;99.90;;;;;;5041167;28;20033;-69
2022/01/30 05:34:20;;;;;;;0.47;0.28;;;5.80;99.90;;;;;;5040582;28;20032;-69
2022/01/30 05:36:46;;;;;;;0.45;0.20;;;5.80;99.90;;;;;;5039313;28;20029;-70
2022/01/30 05:39:12;;;;;;;0.80;0.20;;;5.80;99.90;;;;;;5039472;28;20105;-70
2022/01/30 05:41:38;;;;;;;0.52;0.30;;;5.90;99.90;;;;;;5038407;28;20057;-70
2022/01/30 05:44:11;;;;;;;0.52;0.30;;;5.80;99.90;;;;;;5036969;28;20044;-69
2022/01/30 05:46:47;;;;;;;0.90;0.53;;;5.80;99.90;;;;;;5035696;28;20406;-70
2022/01/30 05:49:14;;;;;;;0.63;0.32;;;5.80;99.90;;;;;;5038790;28;20478;-71
2022/01/30 05:51:40;;;;;;;0.35;0.30;;;5.80;99.90;;;;;;5030538;28;20036;-71
2022/01/30 05:54:06;;;;;;;0.82;0.30;;;5.80;99.90;;;;;;5041991;28;20038;-69
2022/01/30 05:56:33;;;;;;;0.80;0.25;;;5.80;99.90;;;;;;5032845;28;20451;-70
2022/01/30 05:58:59;;;;;;;0.93;0.20;;;5.70;99.90;;;;;;5036553;28;20520;-72
2022/01/30 06:01:25;;;;;;;0.73;0.30;;;5.70;99.90;;;;;;5035206;28;20029;-71
2022/01/30 06:03:51;;;;;;;0.40;0.30;;;5.70;99.90;;;;;;5040096;28;20037;-71
2022/01/30 06:06:16;;;;;;;0.30;0.25;;;5.80;99.90;;;;;;5035235;28;20498;-70
2022/01/30 06:11:14;;;;;;;0.45;0.22;;;5.70;99.90;;;;;;5039134;28;20170;-69
2022/01/30 06:13:40;;;;;;;0.52;0.35;;;5.80;99.90;;;;;;5036748;28;20041;-71
2022/01/30 06:16:06;;;;;;;1.42;0.52;;;5.80;99.90;;;;;;5033233;28;20040;-71
2022/01/30 06:18:31;;;;;;;1.10;0.50;;;5.80;99.90;;;;;;5033611;28;20143;-70
2022/01/30 06:20:57;;;;;;;0.77;0.20;;;5.80;99.90;;;;;;5036065;28;20026;-69
2022/01/30 06:23:26;;;;;;;0.95;0.20;;;5.80;99.90;;;;;;5033399;28;20046;-70
2022/01/30 06:25:56;;;;;;;0.30;0.20;;;5.80;99.90;;;;;;5035296;28;20075;-71
2022/01/30 06:28:22;;;;;;;1.98;0.38;;;5.70;99.90;;;;;;5034298;28;20025;-70
2022/01/30 06:30:48;;;;;;;0.80;0.30;;;5.70;99.90;;;;;;5029170;28;20021;-70
2022/01/30 06:33:14;;;;;;;0.98;0.32;;;5.70;99.90;;;;;;5035654;28;20113;-70
2022/01/30 06:35:40;;;;;;;2.42;0.40;;;5.70;99.90;;;;;;5040709;28;20116;-70
2022/01/30 06:38:05;;;;;;;0.43;0.40;;;5.60;99.90;;;;;;5033627;28;20029;-70
2022/01/30 06:40:34;;;;;;;0.60;0.32;;;5.60;99.90;;;;;;5030887;28;20079;-71
2022/01/30 06:43:00;;;;;;;0.80;0.47;;;5.60;99.90;;;;;;5030780;28;20029;-71
2022/01/30 06:45:26;;;;;;;1.02;0.40;;;5.60;99.90;;;;;;5028376;28;20021;-70
2022/01/30 06:47:52;;;;;;;0.82;0.40;;;5.60;99.90;;;;;;5034960;28;20049;-72
2022/01/30 06:50:18;;;;;;;2.92;0.50;;;5.60;99.90;;;;;;5030859;28;20025;-71
2022/01/30 06:52:44;;;;;;;1.45;0.80;;;5.60;99.90;;;;;;5041331;28;20024;-70
2022/01/30 06:55:10;;;;;;;2.65;0.60;;;5.60;99.90;;;;;;5038187;28;20170;-71
2022/01/30 06:57:45;;;;;;;1.48;0.82;;;5.60;99.90;;;;;;5038449;28;20040;-70
2022/01/30 07:00:12;;;;;;;1.20;0.60;;;5.60;99.90;;;;;;5033689;28;20026;-70
2022/01/30 07:02:38;;;;;;;1.30;0.70;;;5.60;99.90;;;;;;5032156;28;20060;-70
2022/01/30 07:05:04;;;;;;;3.65;0.90;;;5.60;99.90;;;;;;5038243;28;20029;-69
2022/01/30 07:07:30;;;;;;;0.98;0.50;;;5.60;99.90;;;;;;5039378;28;20067;-69
2022/01/30 07:09:56;;;;;;;0.77;0.57;;;5.60;99.90;;;;;;5039722;28;20036;-70
2022/01/30 07:12:21;;;;;;;2.92;0.68;;;5.70;99.90;;;;;;5039606;28;20502;-70
2022/01/30 07:14:47;;;;;;;2.03;0.68;;;5.70;99.90;;;;;;5038299;28;20108;-70
2022/01/30 07:17:13;;;;;;;4.20;0.80;;;5.70;99.90;;;;;;5040726;28;20034;-71
2022/01/30 07:19:39;;;;;;;2.42;0.73;;;5.70;99.90;;;;;;5045304;28;20087;-71
2022/01/30 07:22:05;;;;;;;1.90;0.57;;;5.70;99.90;;;;;;5044445;28;20025;-70
2022/01/30 07:24:30;;;;;;;2.60;0.50;;;5.70;99.90;;;;;;5038450;28;20037;-71
2022/01/30 07:26:56;;;;;;;3.65;0.88;;;5.70;99.90;;;;;;5042577;28;20045;-72
2022/01/30 07:29:22;;;;;;;4.30;0.77;;;5.70;99.90;;;;;;5039638;28;20084;-72
2022/01/30 07:31:48;;;;;;;0.95;0.50;;;5.70;99.90;;;;;;5043513;28;20021;-70
2022/01/30 07:34:14;;;;;;;4.80;0.88;;;5.70;99.90;;;;;;5041759;28;20142;-70
2022/01/30 07:36:41;;;;;;;4.55;0.70;;;5.70;99.90;;;;;;5040371;28;20028;-70
2022/01/30 07:39:08;;;;;;;2.38;0.90;;;5.80;99.90;;;;;;5042007;28;20035;-70
2022/01/30 07:41:34;;;;;;;1.02;0.60;;;5.80;99.90;;;;;;5044192;28;20538;-71
2022/01/30 07:44:01;;;;;;;2.35;0.70;;;5.80;99.90;;;;;;5041816;28;20398;-71
2022/01/30 07:46:28;;;;;;;1.45;0.43;;;5.80;99.90;;;;;;5039054;28;20378;-71
2022/01/30 07:48:54;;;;;;;1.73;0.80;;;5.80;99.90;;;;;;5039223;28;20173;-70
2022/01/30 07:51:20;;;;;;;3.47;0.98;;;5.80;99.90;;;;;;5038083;28;20029;-70
2022/01/30 07:53:45;;;;;;;4.38;1.33;;;5.80;99.90;;;;;;5040790;28;20108;-71
2022/01/30 07:56:12;;;;;;;6.00;2.63;;;5.80;99.90;;;;;;5038353;28;20035;-72
2022/01/30 07:58:38;;;;;;;7.45;3.30;;;5.80;99.90;;;;;;5035478;28;20104;-72
2022/01/30 08:01:04;;;;;;;10.13;4.50;;;5.90;99.90;;;;;;5030485;28;20717;-71
2022/01/30 08:03:30;;;;;;;9.98;5.10;;;5.90;99.90;;;;;;5044357;28;20028;-69
2022/01/30 08:05:55;;;;;;;5.60;3.00;;;5.90;99.90;;;;;;5031806;28;20363;-70
2022/01/30 08:08:21;;;;;;;3.47;1.52;;;5.90;99.90;;;;;;5019706;28;20040;-71
2022/01/30 08:10:47;;;;;;;6.57;1.38;;;5.90;99.90;;;;;;5019007;28;20039;-71
2022/01/30 08:13:14;;;;;;;6.25;1.85;;;5.90;99.90;;;;;;5024104;28;20053;-70
2022/01/30 08:15:40;;;;;;;6.10;1.35;;;5.90;99.90;;;;;;5032098;28;20494;-71
2022/01/30 08:18:08;;;;;;;5.25;1.27;;;5.90;99.90;;;;;;5022577;28;20030;-71
2022/01/30 08:20:34;;;;;;;5.22;1.58;;;5.90;99.90;;;;;;5023287;28;20033;-70
2022/01/30 08:23:01;;;;;;;3.85;1.13;;;5.90;99.90;;;;;;5017423;28;20540;-71
2022/01/30 08:25:27;;;;;;;4.30;1.00;;;5.90;99.90;;;;;;5038086;23;20357;-71
2022/01/30 08:27:54;;;;;;;4.85;1.58;;;5.90;99.90;;;;;;5003668;28;20517;-72
2022/01/30 08:30:20;;;;;;;3.00;1.20;;;5.90;99.90;;;;;;5003136;28;20533;-72
2022/01/30 08:32:49;;;;;;;4.18;2.13;;;6.00;99.90;;;;;;5004000;28;20022;-71
2022/01/30 08:35:18;;;;;;;4.80;1.58;;;6.00;99.90;;;;;;4998991;28;20130;-70
2022/01/30 08:37:47;;;;;;;5.97;2.00;;;6.00;99.90;;;;;;5001079;28;20080;-71
2022/01/30 08:40:21;;;;;;;5.00;1.33;;;6.00;99.90;;;;;;4987674;28;20130;-71
2022/01/30 08:42:47;;;;;;;;;;;6.10;99.90;;;;;;5001402;28;20030;-71
2022/01/30 08:45:15;;;;;;;5.93;2.00;;;6.10;99.90;;;;;;4991464;28;19913;-72
2022/01/30 08:47:42;;;;;;;5.28;1.83;;;6.10;99.90;;;;;;4996423;28;20061;-71
2022/01/30 08:50:08;;;;;;;5.35;1.77;;;6.10;99.90;;;;;;4992996;28;20137;-71
2022/01/30 08:52:34;;;;;;;9.38;2.10;;;6.10;99.90;;;;;;4985928;28;20069;-69
2022/01/30 08:55:01;;;;;;;7.50;1.83;;;6.10;99.90;;;;;;4987022;28;20081;-70
2022/01/30 08:57:30;;;;;;;5.40;1.95;;;6.10;99.90;;;;;;4997472;28;20030;-69
2022/01/30 08:59:57;;;;;;;4.90;1.92;;;6.10;99.90;;;;;;4996208;28;20121;-69
2022/01/30 09:02:23;;;;;;;6.68;2.10;;;5.90;99.90;;;;;;4994098;28;20506;-69
2022/01/30 09:04:49;;;;;;;7.80;1.60;;;5.90;99.90;;;;;;4997589;28;20061;-69
2022/01/30 09:07:16;;;;;;;10.60;2.22;;;5.90;99.90;;;;;;4982262;28;20027;-70
2022/01/30 09:09:41;;;;;;;10.85;2.30;;;5.90;99.90;;;;;;4994271;28;20081;-70
2022/01/30 09:12:07;;;;;;;9.73;2.17;;;5.90;99.90;;;;;;4988890;28;20364;-69
2022/01/30 09:14:33;;;;;;;10.52;2.20;;;5.90;99.90;;;;;;4990829;28;20019;-71
2022/01/30 09:16:59;;;;;;;11.20;3.55;;;5.90;99.90;;;;;;5003296;28;20088;-70
2022/01/30 09:19:24;;;;;;;8.02;3.42;;;5.90;99.90;;;;;;5003833;28;20407;-68
2022/01/30 09:21:56;;;;;;;6.85;3.10;;;6.00;99.90;;;;;;4997207;28;20042;-69
2022/01/30 09:24:22;;;;;;;13.48;2.83;;;6.00;99.90;;;;;;4997289;28;20031;-69
2022/01/30 09:26:48;;;;;;;12.73;2.58;;;6.00;99.90;;;;;;4988072;28;20363;-69
2022/01/30 09:29:14;;;;;;;10.90;3.38;;;6.00;99.90;;;;;;4994031;28;20109;-70
2022/01/30 09:31:39;;;;;;;13.00;2.58;;;6.00;99.90;;;;;;5000538;28;20025;-70
2022/01/30 09:34:05;;;;;;;10.90;2.25;;;6.00;99.90;;;;;;4995208;28;20459;-69
2022/01/30 09:36:31;;;;;;;11.65;3.22;;;6.00;99.90;;;;;;4992578;28;20084;-71
2022/01/30 09:38:56;;;;;;;11.77;2.78;;;6.00;99.90;;;;;;4995947;28;20030;-70
2022/01/30 09:41:25;;;;;;;14.45;2.72;;;6.10;99.90;;;;;;4993685;28;20092;-70
2022/01/30 09:43:53;;;;;;;13.52;2.63;;;6.10;99.90;;;;;;4994390;28;20034;-70
2022/01/30 09:46:20;;;;;;;15.80;3.00;;;6.20;99.90;;;;;;4985964;28;20049;-70
2022/01/30 09:48:51;;;;;;;10.00;2.78;;;6.40;99.90;;;;;;4992999;28;20113;-71
2022/01/30 09:51:17;;;;;;;15.68;2.92;;;6.50;99.90;;;;;;4993366;28;20034;-70
2022/01/30 09:53:43;;;;;;;10.93;3.33;;;6.80;99.90;;;;;;4996516;28;20395;-71
2022/01/30 09:56:11;;;;;;;15.65;2.85;;;6.90;99.90;;;;;;5008327;28;20026;-70
2022/01/30 09:58:40;;;;;;;7.85;2.55;;;7.10;99.90;;;;;;4993009;28;20053;-70
2022/01/30 10:01:06;;;;;;;9.15;3.03;;;7.20;99.90;;;;;;4993903;28;20161;-71
2022/01/30 10:03:35;;;;;;;14.65;3.20;;;7.20;99.90;;;;;;4993812;28;20077;-70
2022/01/30 10:06:13;;;;;;;12.40;2.03;;;7.30;99.90;;;;;;4993137;28;20320;-70
2022/01/30 10:08:47;;;;;;;14.02;2.40;;;7.30;99.90;;;;;;4993407;28;20022;-69
2022/01/30 10:11:31;;;;;;;6.38;2.25;;;7.30;99.90;;;;;;5004481;28;20497;-69
2022/01/30 10:14:06;;;;;;;11.02;2.45;;;7.30;99.90;;;;;;4998401;28;20060;-69
2022/01/30 10:16:50;;;;;;;9.35;2.42;;;7.40;99.90;;;;;;4993824;28;20035;-71
2022/01/30 10:19:20;;;;;;;;;;;7.50;99.90;;;;;;4993546;28;20038;-69
2022/01/30 10:22:06;;;;;;;16.33;1.80;;;7.60;99.90;;;;;;4993284;28;20288;-70
2022/01/30 10:24:37;;;;;;;13.60;2.25;;;7.50;99.90;;;;;;4992482;28;20034;-70
2022/01/30 10:27:21;;;;;;;10.43;2.90;;;7.60;99.90;;;;;;4975025;28;20039;-70
2022/01/30 10:30:06;;;;;;;8.73;2.38;;;7.60;99.90;;;;;;4998461;28;20031;-71
2022/01/30 10:32:32;;;;;;;14.40;2.70;;;7.60;99.90;;;;;;4995401;28;20533;-70
2022/01/30 10:35:04;;;;;;;11.60;2.95;;;7.40;99.90;;;;;;4997853;28;20022;-70
2022/01/30 10:37:30;;;;;;;10.27;2.17;;;7.40;99.90;;;;;;4996936;28;20069;-70
2022/01/30 10:40:10;;;;;;;10.95;2.88;;;7.40;99.90;;;;;;4997556;28;20053;-70
2022/01/30 10:42:55;;;;;;;9.30;2.50;;;7.30;99.90;;;;;;4996299;28;20066;-69
2022/01/30 10:45:25;;;;;;;15.35;2.00;;;7.30;99.90;;;;;;4995742;28;20038;-69
2022/01/30 10:48:17;;;;;;;7.07;2.20;;;7.40;99.90;;;;;;4995956;28;20041;-71
2022/01/30 10:50:47;;;;;;;14.70;2.47;;;7.30;99.90;;;;;;5006049;28;20414;-70
2022/01/30 10:53:18;;;;;;;11.40;2.42;;;7.30;99.90;;;;;;4997143;28;20438;-71
2022/01/30 10:55:44;;;;;;;26.52;3.30;;;7.20;99.90;;;;;;4996984;28;20049;-71
2022/01/30 10:58:19;;;;;;;13.45;3.58;;;7.30;99.90;;;;;;4999190;28;20018;-71
2022/01/30 11:00:53;;;;;;;8.55;2.38;;;7.40;99.90;;;;;;5017674;28;20032;-70
2022/01/30 11:03:44;;;;;;;9.32;2.33;;;7.40;99.90;;;;;;4994325;28;20045;-69
2022/01/30 11:06:13;;;;;;;10.20;2.25;;;7.40;99.90;;;;;;5015977;28;20080;-70
2022/01/30 11:08:44;;;;;;;9.93;2.33;;;7.20;99.90;;;;;;5015458;28;20109;-70
2022/01/30 11:11:23;;;;;;;10.18;2.28;;;7.20;99.80;;;;;;5016197;28;20041;-69
2022/01/30 11:19:53;;;;;;;8.25;2.60;;;7.10;99.90;;;;;;5015862;28;20508;-69
2022/01/30 11:22:21;;;;;;;11.25;2.28;;;7.00;99.90;;;;;;4960159;28;20034;-70
2022/01/30 11:25:04;;;;;;;11.98;2.28;;;7.10;99.90;;;;;;5015825;28;20034;-70
2022/01/30 11:27:31;;;;;;;9.70;2.03;;;7.10;99.90;;;;;;5015878;28;20407;-70
2022/01/30 11:30:00;;;;;;;6.90;2.38;;;7.10;99.90;;;;;;5010989;28;20507;-71
2022/01/30 11:32:27;;;;;;;8.68;2.53;;;7.10;99.90;;;;;;5013708;28;20018;-71
2022/01/30 11:34:54;;;;;;;11.23;3.25;;;7.10;99.90;;;;;;5012758;28;20044;-72
2022/01/30 11:37:23;;;;;;;18.20;4.50;;;7.10;99.90;;;;;;5015252;28;20097;-71
2022/01/30 11:39:52;;;;;;;14.13;2.63;;;7.00;99.90;;;;;;5015442;28;20032;-72
2022/01/30 11:42:26;;;;;;;13.00;2.67;;;7.10;99.90;;;;;;5013634;28;20582;-71
2022/01/30 11:45:04;;;;;;;10.25;2.75;;;7.00;99.90;;;;;;5008613;28;20060;-73
2022/01/30 11:47:46;;;;;;;12.15;3.22;;;7.00;99.90;;;;;;5008391;28;20373;-71
2022/01/30 11:50:29;;;;;;;11.68;2.65;;;7.00;99.90;;;;;;5012227;28;20025;-72
2022/01/30 11:53:06;;;;;;;13.73;2.78;;;6.90;99.90;;;;;;5022493;28;20025;-70
2022/01/30 11:56:00;;;;;;;13.02;2.42;;;7.00;99.90;;;;;;5016300;28;20493;-72
2022/01/30 11:58:35;;;;;;;13.27;2.75;;;7.00;99.90;;;;;;5014426;28;20018;-71
2022/01/30 12:01:05;;;;;;;14.55;2.72;;;7.00;99.90;;;;;;5015183;28;20100;-70
2022/01/30 12:03:35;;;;;;;10.50;2.13;;;7.00;99.90;;;;;;5023406;28;20034;-70
2022/01/30 12:06:19;;;;;;;10.65;2.60;;;7.00;99.90;;;;;;5035677;28;20039;-70
2022/01/30 12:08:49;;;;;;;8.43;2.35;;;7.00;99.90;;;;;;5018704;28;20473;-69
2022/01/30 12:11:51;;;;;;;12.35;2.78;;;7.00;99.90;;;;;;5013620;28;20061;-69
2022/01/30 12:14:20;;;;;;;11.90;2.40;;;6.90;99.90;;;;;;4918716;29;20564;-69
2022/01/30 12:17:00;;;;;;;13.25;2.47;;;6.90;99.90;;;;;;4988879;28;20068;-70
2022/01/30 12:19:46;;;;;;;9.45;1.98;;;7.00;99.90;;;;;;5016954;28;20014;-70
2022/01/30 12:22:23;;;;;;;10.55;2.63;;;6.90;99.90;;;;;;5016727;28;20030;-69
2022/01/30 12:25:12;;;;;;;7.97;2.00;;;6.90;99.90;;;;;;5013205;28;20026;-69
2022/01/30 12:27:48;;;;;;;8.52;2.42;;;6.80;99.90;;;;;;5014653;28;20027;-70
2022/01/30 12:30:36;;;;;;;10.55;2.67;;;6.80;99.90;;;;;;5012968;28;20121;-69
2022/01/30 12:33:22;;;;;;;9.25;2.28;;;6.80;99.90;;;;;;4996706;28;20034;-69
2022/01/30 12:35:54;;;;;;;10.43;2.72;;;6.90;99.90;;;;;;5026472;28;20034;-69
2022/01/30 12:38:29;;;;;;;12.82;2.25;;;6.90;99.90;;;;;;5014452;28;20025;-70
2022/01/30 12:40:55;;;;;;;14.13;3.50;;;6.90;99.90;;;;;;5011448;28;20034;-70
2022/01/30 12:43:30;;;;;;;10.23;2.38;;;6.90;99.90;;;;;;5012864;28;20032;-69
2022/01/30 12:46:09;;;;;;;13.77;3.00;;;7.00;99.90;;;;;;5009716;28;20095;-69
2022/01/30 12:48:36;;;;;;;6.38;1.75;;;7.00;99.90;;;;;;5033841;28;20052;-69
2022/01/30 12:51:06;;;;;;;12.32;2.20;;;7.00;99.90;;;;;;5026077;28;20490;-69
2022/01/30 12:53:37;;;;;;;11.20;2.58;;;7.00;99.60;;;;;;5035268;28;20054;-69
2022/01/30 12:56:04;;;;;;;8.32;2.28;;;7.00;99.70;;;;;;5033172;28;20087;-72
2022/01/30 12:58:40;;;;;;;17.42;3.08;;;7.10;99.70;;;;;;5023669;28;20027;-70
2022/01/30 13:01:09;;;;;;;22.02;2.88;;;7.20;99.70;;;;;;5019522;28;20021;-72
2022/01/30 13:03:35;;;;;;;8.95;2.45;;;7.20;99.50;;;;;;5015021;28;20026;-71
2022/01/30 13:06:00;;;;;;;11.68;2.67;;;7.30;99.50;;;;;;4957721;28;20096;-71
2022/01/30 13:08:49;;;;;;;11.38;2.58;;;7.30;99.50;;;;;;4985308;28;20022;-70
2022/01/30 13:11:23;;;;;;;8.23;2.22;;;7.40;99.30;;;;;;5004783;28;20026;-71
2022/01/30 13:13:55;;;;;;;;;;;7.40;98.40;;;;;;5002430;28;20049;-69
2022/01/30 13:16:34;;;;;;;9.23;2.40;;;7.40;98.20;;;;;;4991938;28;19912;-71
2022/01/30 13:19:02;;;;;;;7.63;2.33;;;7.50;98.20;;;;;;4987906;28;20392;-70
2022/01/30 13:21:31;;;;;;;10.00;2.47;;;7.50;97.70;;;;;;5006732;28;20026;-72
2022/01/30 13:23:58;;;;;;;13.18;2.28;;;7.40;96.80;;;;;;5005825;28;20034;-71
2022/01/30 13:26:32;;;;;;;7.32;2.08;;;7.40;96.90;;;;;;5013807;28;20030;-72
2022/01/30 13:28:59;;;;;;;9.82;2.25;;;7.40;97.00;;;;;;4999936;28;20040;-73
2022/01/30 13:31:26;;;;;;;11.10;2.53;;;7.50;97.40;;;;;;4992059;28;20062;-73
2022/01/30 13:34:09;;;;;;;9.05;2.30;;;7.40;97.50;;;;;;5006037;28;20105;-75
2022/01/30 13:36:35;;;;;;;8.57;2.13;;;7.40;97.80;;;;;;4992915;28;20029;-75
2022/01/30 13:39:07;;;;;;;10.95;3.08;;;7.30;97.70;;;;;;4994193;28;20023;-71
2022/01/30 13:41:43;;;;;;;11.00;2.30;;;7.30;98.20;;;;;;4988958;28;20022;-71
2022/01/30 13:44:21;;;;;;;12.35;2.45;;;7.30;98.50;;;;;;4993324;28;20030;-71
2022/01/30 13:46:57;;;;;;;13.48;2.72;;;7.30;98.20;;;;;;4991205;28;20029;-73
2022/01/30 13:49:22;;;;;;;10.73;2.25;;;7.30;97.90;;;;;;4991455;28;20034;-70
2022/01/30 13:52:03;;;;;;;11.30;2.97;;;7.30;98.00;;;;;;4993103;28;20025;-70
2022/01/30 13:54:29;;;;;;;9.68;2.85;;;7.30;98.00;;;;;;4996374;28;20022;-71
2022/01/30 13:57:08;;;;;;;7.70;2.10;;;7.30;98.30;;;;;;4997067;28;20079;-70
2022/01/30 13:59:35;;;;;;;13.32;3.58;;;7.30;98.80;;;;;;4994752;28;20027;-71
2022/01/30 14:02:03;;;;;;;8.20;2.33;;;7.30;99.40;;;;;;4987896;28;20077;-70
2022/01/30 14:04:38;;;;;;;10.48;2.60;;;7.10;99.30;;;;;;4992958;28;20033;-70
2022/01/30 14:07:23;;;;;;;11.00;2.97;;;6.90;99.90;;;;;;5013573;28;20495;-71
2022/01/30 14:09:52;;;;;;;9.18;2.78;;;6.80;99.90;;;;;;5006236;28;20038;-71
2022/01/30 14:12:23;;;;;;;11.60;3.50;;;6.60;99.90;;;;;;5007974;28;20430;-71